createdAt,value
2022-07-25T00:01:57.663Z,10.35
2022-07-25T00:04:43.419Z,7.65
2022-07-25T00:07:29.811Z,10.50
2022-07-25T00:10:15.736Z,10.82
2022-07-25T00:13:01.048Z,10.75
2022-07-25T00:15:46.771Z,9.75
2022-07-25T00:18:32.349Z,9.57
2022-07-25T00:21:17.869Z,7.05
2022-07-25T00:24:04.138Z,12.32
2022-07-25T00:26:50.174Z,10.95
2022-07-25T00:29:36.105Z,9.05
2022-07-25T00:32:21.661Z,8.50
2022-07-25T00:35:07.270Z,6.32
2022-07-25T00:37:52.634Z,5.88
2022-07-25T00:40:38.518Z,10.70
2022-07-25T00:43:24.168Z,8.05
2022-07-25T00:46:13.266Z,5.35
2022-07-25T00:48:59.011Z,9.45
2022-07-25T00:51:46.066Z,10.00
2022-07-25T00:54:31.575Z,5.78
2022-07-25T00:57:17.586Z,15.18
2022-07-25T01:00:04.741Z,11.18
2022-07-25T01:02:50.993Z,8.15
2022-07-25T01:05:36.669Z,8.55
2022-07-25T01:08:22.969Z,8.75
2022-07-25T01:11:08.978Z,6.95
2022-07-25T01:13:54.405Z,10.63
2022-07-25T01:16:41.293Z,6.60
2022-07-25T01:19:27.018Z,9.48
2022-07-25T01:22:12.598Z,6.57
2022-07-25T01:24:58.098Z,7.13
2022-07-25T01:27:44.254Z,6.32
2022-07-25T01:30:29.480Z,8.70
2022-07-25T01:33:22.536Z,8.05
2022-07-25T01:36:07.897Z,7.43
2022-07-25T01:38:54.245Z,12.93
2022-07-25T01:41:39.896Z,7.95
2022-07-25T01:44:25.318Z,8.00
2022-07-25T01:47:11.258Z,10.05
2022-07-25T01:49:56.580Z,6.97
2022-07-25T01:52:42.687Z,10.38
2022-07-25T01:55:28.311Z,7.60
2022-07-25T01:58:15.354Z,8.95
2022-07-25T02:01:01.178Z,10.57
2022-07-25T02:03:46.765Z,7.60
2022-07-25T02:06:34.331Z,9.30
2022-07-25T02:09:19.717Z,6.82
2022-07-25T02:12:07.353Z,7.93
2022-07-25T02:14:52.789Z,8.40
2022-07-25T02:17:38.430Z,6.72
2022-07-25T02:20:24.503Z,9.90
2022-07-25T02:23:10.845Z,10.65
2022-07-25T02:25:56.131Z,10.23
2022-07-25T02:28:41.831Z,9.57
2022-07-25T02:31:27.099Z,10.52
2022-07-25T02:34:12.673Z,11.02
2022-07-25T02:36:57.947Z,10.85
2022-07-25T02:39:43.441Z,11.35
2022-07-25T02:42:28.986Z,8.48
2022-07-25T02:45:14.559Z,9.02
2022-07-25T02:48:00.167Z,11.75
2022-07-25T02:50:45.698Z,10.02
2022-07-25T02:53:55.577Z,9.98
2022-07-25T02:56:36.802Z,9.80
2022-07-25T02:59:22.348Z,13.38
2022-07-25T03:02:07.893Z,9.52
2022-07-25T03:04:53.379Z,11.18
2022-07-25T03:07:39.201Z,11.10
2022-07-25T03:10:24.972Z,9.55
2022-07-25T03:13:10.805Z,11.32
2022-07-25T03:15:56.442Z,18.15
2022-07-25T03:18:41.827Z,10.38
2022-07-25T03:21:27.375Z,12.07
2022-07-25T03:24:12.887Z,11.45
2022-07-25T03:26:58.399Z,9.27
2022-07-25T03:29:43.782Z,11.32
2022-07-25T03:32:29.326Z,12.02
2022-07-25T03:35:15.469Z,11.35
2022-07-25T03:38:00.849Z,12.80
2022-07-25T03:40:46.354Z,9.38
2022-07-25T03:43:31.929Z,10.07
2022-07-25T03:46:17.503Z,10.77
2022-07-25T03:49:03.138Z,8.55
2022-07-25T03:51:48.901Z,9.23
2022-07-25T03:54:34.948Z,15.18
2022-07-25T03:57:20.052Z,10.82
2022-07-25T04:00:07.463Z,13.57
2022-07-25T04:02:53.057Z,9.75
2022-07-25T04:05:38.764Z,9.80
2022-07-25T04:08:24.276Z,9.93
2022-07-25T04:11:09.692Z,11.40
2022-07-25T04:13:55.469Z,13.77
2022-07-25T04:16:41.475Z,13.18
2022-07-25T04:19:27.719Z,10.35
2022-07-25T04:22:14.239Z,10.68
2022-07-25T04:24:59.666Z,13.70
2022-07-25T04:27:45.194Z,16.38
2022-07-25T04:30:30.474Z,11.23
2022-07-25T04:33:16.233Z,11.00
2022-07-25T04:36:01.414Z,14.30
2022-07-25T04:38:47.156Z,16.90
2022-07-25T04:41:32.723Z,14.45
2022-07-25T04:44:18.168Z,12.27
2022-07-25T04:47:05.030Z,12.32
2022-07-25T04:49:50.299Z,12.70
2022-07-25T04:52:35.804Z,14.25
2022-07-25T04:55:21.545Z,16.98
2022-07-25T04:58:06.950Z,15.13
2022-07-25T05:00:52.968Z,13.85
2022-07-25T05:03:38.610Z,15.45
2022-07-25T05:06:24.276Z,13.15
2022-07-25T05:09:10.618Z,11.02
2022-07-25T05:11:56.567Z,12.48
2022-07-25T05:14:42.567Z,14.13
2022-07-25T05:17:28.043Z,14.10
2022-07-25T05:20:14.646Z,14.68
2022-07-25T05:22:59.925Z,11.15
2022-07-25T05:25:45.479Z,12.82
2022-07-25T05:28:31.109Z,15.18
2022-07-25T05:31:16.800Z,12.52
2022-07-25T05:34:02.917Z,10.90
2022-07-25T05:36:48.844Z,14.80
2022-07-25T05:39:34.252Z,12.52
2022-07-25T05:42:19.930Z,9.73
2022-07-25T05:45:06.080Z,10.70
2022-07-25T05:47:51.590Z,9.10
2022-07-25T05:50:37.543Z,9.68
2022-07-25T05:53:22.910Z,10.48
2022-07-25T05:56:09.584Z,12.38
2022-07-25T05:58:54.774Z,12.10
2022-07-25T06:01:40.136Z,12.23
2022-07-25T06:04:27.339Z,12.85
2022-07-25T06:07:17.071Z,19.25
2022-07-25T06:10:03.387Z,9.68
2022-07-25T06:12:48.823Z,10.27
2022-07-25T06:15:35.246Z,8.07
2022-07-25T06:18:20.865Z,9.15
2022-07-25T06:21:06.689Z,7.82
2022-07-25T06:23:51.927Z,5.57
2022-07-25T06:26:40.698Z,13.82
2022-07-25T06:29:26.280Z,11.20
2022-07-25T06:32:12.286Z,9.10
2022-07-25T06:34:57.956Z,4.07
2022-07-25T06:37:43.586Z,7.95
2022-07-25T06:40:29.243Z,8.60
2022-07-25T06:43:14.944Z,6.50
2022-07-25T06:46:00.568Z,10.35
2022-07-25T06:48:45.955Z,6.70
2022-07-25T06:51:31.556Z,5.20
2022-07-25T06:54:18.613Z,6.35
2022-07-25T06:57:04.454Z,6.57
2022-07-25T06:59:49.692Z,11.82
2022-07-25T07:02:35.848Z,9.25
2022-07-25T07:05:21.997Z,7.38
2022-07-25T07:08:07.422Z,9.65
2022-07-25T07:10:53.105Z,7.15
2022-07-25T07:13:38.544Z,10.80
2022-07-25T07:16:24.193Z,10.10
2022-07-25T07:19:14.485Z,4.90
2022-07-25T07:21:59.891Z,9.88
2022-07-25T07:24:45.322Z,10.55
2022-07-25T07:27:34.302Z,9.63
2022-07-25T07:30:24.439Z,7.20
2022-07-25T07:33:12.598Z,8.75
2022-07-25T07:35:58.240Z,8.60
2022-07-25T07:38:48.295Z,6.80
2022-07-25T07:41:33.811Z,6.80
2022-07-25T07:44:19.337Z,8.18
2022-07-25T07:47:05.457Z,9.32
2022-07-25T07:50:00.014Z,6.20
2022-07-25T07:52:46.515Z,8.57
2022-07-25T07:55:48.930Z,6.30
2022-07-25T07:58:34.840Z,5.70
2022-07-25T08:01:20.594Z,6.63
2022-07-25T08:04:06.114Z,8.60
2022-07-25T08:06:52.452Z,9.40
2022-07-25T08:09:38.452Z,3.03
2022-07-25T08:12:24.310Z,5.72
2022-07-25T08:15:10.766Z,6.20
2022-07-25T08:17:56.708Z,8.82
2022-07-25T08:20:42.614Z,4.97
2022-07-25T08:23:28.059Z,10.93
2022-07-25T08:26:16.978Z,4.18
2022-07-25T08:29:18.859Z,5.70
2022-07-25T08:32:05.442Z,5.95
2022-07-25T08:34:50.988Z,1.92
2022-07-25T08:37:36.439Z,5.32
2022-07-25T08:40:24.239Z,3.38
2022-07-25T08:43:15.079Z,6.70
2022-07-25T08:46:02.454Z,4.75
2022-07-25T08:48:49.152Z,10.73
2022-07-25T08:51:35.255Z,3.58
2022-07-25T08:54:22.835Z,7.97
2022-07-25T08:57:08.905Z,4.70
2022-07-25T09:00:00.459Z,6.07
2022-07-25T09:02:56.141Z,7.57
2022-07-25T09:05:42.123Z,3.58
2022-07-25T09:08:27.971Z,3.47
2022-07-25T09:11:13.592Z,2.55
2022-07-25T09:14:05.785Z,4.38
2022-07-25T09:16:53.569Z,6.28
2022-07-25T09:19:39.825Z,4.35
2022-07-25T09:22:25.506Z,4.43
2022-07-25T09:25:26.006Z,7.55
2022-07-25T09:28:18.179Z,5.28
2022-07-25T09:31:03.696Z,8.05
2022-07-25T09:33:59.084Z,5.43
2022-07-25T09:36:54.847Z,5.78
2022-07-25T09:39:46.938Z,5.53
2022-07-25T09:42:33.436Z,3.42
2022-07-25T09:45:18.988Z,4.28
2022-07-25T09:48:05.390Z,4.85
2022-07-25T09:50:50.859Z,3.70
2022-07-25T09:53:36.201Z,6.20
2022-07-25T09:56:21.498Z,8.32
2022-07-25T09:59:07.549Z,5.38
2022-07-25T10:02:30.960Z,3.45
2022-07-25T10:05:30.619Z,3.85
2022-07-25T10:08:17.109Z,4.70
2022-07-25T10:11:04.544Z,3.10
2022-07-25T10:13:50.973Z,4.18
2022-07-25T10:16:46.805Z,7.55
2022-07-25T10:19:49.481Z,6.15
2022-07-25T10:22:58.250Z,2.15
2022-07-25T10:25:48.683Z,4.78
2022-07-25T10:28:43.392Z,3.22
2022-07-25T10:31:49.404Z,4.18
2022-07-25T10:34:36.968Z,5.15
2022-07-25T10:37:28.253Z,3.80
2022-07-25T10:40:27.836Z,4.63
2022-07-25T10:43:15.345Z,4.50
2022-07-25T10:46:00.708Z,3.60
2022-07-25T10:48:58.428Z,1.50
2022-07-25T10:51:55.529Z,4.30
2022-07-25T10:54:41.568Z,1.73
2022-07-25T10:57:31.692Z,6.07
2022-07-25T11:00:18.348Z,3.03
2022-07-25T11:03:04.702Z,6.20
2022-07-25T11:05:51.725Z,2.55
2022-07-25T11:08:37.129Z,3.42
2022-07-25T11:11:33.778Z,2.25
2022-07-25T11:14:23.633Z,3.10
2022-07-25T11:17:20.956Z,1.88
2022-07-25T11:20:09.322Z,2.65
2022-07-25T11:22:55.757Z,2.53
2022-07-25T11:25:43.441Z,2.63
2022-07-25T11:28:38.282Z,4.03
2022-07-25T11:31:23.694Z,1.75
2022-07-25T11:34:09.419Z,3.97
2022-07-25T11:36:57.260Z,4.18
2022-07-25T11:39:45.184Z,4.07
2022-07-25T11:42:43.867Z,6.22
2022-07-25T11:45:33.668Z,4.35
2022-07-25T11:48:22.835Z,5.78
2022-07-25T11:51:13.767Z,7.10
2022-07-25T11:54:09.677Z,1.08
2022-07-25T11:56:55.541Z,6.97
2022-07-25T11:59:42.530Z,0.73
2022-07-25T12:02:33.345Z,6.50
2022-07-25T12:05:31.404Z,3.50
2022-07-25T12:08:23.155Z,2.42
2022-07-25T12:11:20.716Z,2.38
2022-07-25T12:14:06.797Z,3.55
2022-07-25T12:16:52.767Z,2.33
2022-07-25T12:19:41.083Z,7.28
2022-07-25T12:22:26.436Z,3.83
2022-07-25T12:25:12.687Z,1.40
2022-07-25T12:28:00.288Z,1.67
2022-07-25T12:30:51.591Z,3.05
2022-07-25T12:33:39.686Z,2.95
2022-07-25T12:36:25.322Z,3.15
2022-07-25T12:39:11.308Z,3.20
2022-07-25T12:41:56.871Z,6.28
2022-07-25T12:44:42.551Z,2.05
2022-07-25T12:47:28.430Z,7.43
2022-07-25T12:50:14.605Z,1.52
2022-07-25T12:53:00.323Z,1.13
2022-07-25T12:55:45.903Z,4.30
2022-07-25T12:58:31.520Z,1.45
2022-07-25T13:01:17.228Z,3.35
2022-07-25T13:04:02.611Z,5.50
2022-07-25T13:06:48.198Z,1.88
2022-07-25T13:09:33.721Z,1.27
2022-07-25T13:12:19.242Z,1.15
2022-07-25T13:15:05.789Z,2.80
2022-07-25T13:17:51.315Z,5.32
2022-07-25T13:20:37.503Z,4.57
2022-07-25T13:23:23.095Z,1.70
2022-07-25T13:26:08.933Z,4.53
2022-07-25T13:28:59.615Z,1.55
2022-07-25T13:31:45.538Z,3.03
2022-07-25T13:34:31.028Z,1.48
2022-07-25T13:37:16.804Z,2.65
2022-07-25T13:40:02.196Z,3.08
2022-07-25T13:42:47.754Z,0.95
2022-07-25T13:45:33.266Z,1.60
2022-07-25T13:48:29.492Z,3.45
2022-07-25T13:51:16.185Z,2.13
2022-07-25T13:54:03.140Z,2.42
2022-07-25T13:56:48.824Z,1.88
2022-07-25T13:59:34.391Z,1.83
2022-07-25T14:02:20.309Z,2.72
2022-07-25T14:05:07.184Z,3.22
2022-07-25T14:07:53.111Z,1.00
2022-07-25T14:10:38.680Z,4.97
2022-07-25T14:13:24.569Z,3.15
2022-07-25T14:16:10.459Z,2.58
2022-07-25T14:18:56.514Z,2.38
2022-07-25T14:21:42.296Z,1.27
2022-07-25T14:24:27.584Z,3.00
2022-07-25T14:27:13.325Z,1.48
2022-07-25T14:29:58.911Z,3.13
2022-07-25T14:32:44.596Z,3.15
2022-07-25T14:35:32.591Z,4.55
2022-07-25T14:38:18.534Z,1.42
2022-07-25T14:41:07.858Z,2.08
2022-07-25T14:43:58.298Z,2.25
2022-07-25T14:46:44.112Z,2.65
2022-07-25T14:49:29.741Z,0.52
2022-07-25T14:52:15.777Z,1.63
2022-07-25T14:55:01.212Z,0.90
2022-07-25T14:57:46.932Z,4.00
2022-07-25T15:00:33.811Z,2.17
2022-07-25T15:03:19.478Z,3.47
2022-07-25T15:06:07.194Z,2.03
2022-07-25T15:08:53.411Z,4.10
2022-07-25T15:11:39.449Z,3.97
2022-07-25T15:14:24.964Z,1.42
2022-07-25T15:17:10.422Z,1.58
2022-07-25T15:19:55.527Z,4.55
2022-07-25T15:22:41.073Z,4.55
2022-07-25T15:25:59.964Z,3.05
2022-07-25T15:28:36.998Z,2.05
2022-07-25T15:31:24.661Z,4.22
2022-07-25T15:34:12.677Z,1.33
2022-07-25T15:36:58.006Z,4.53
2022-07-25T15:39:44.449Z,4.60
2022-07-25T15:42:29.952Z,1.92
2022-07-25T15:45:32.479Z,3.50
2022-07-25T15:48:20.060Z,4.53
2022-07-25T15:51:06.543Z,4.20
2022-07-25T15:53:52.044Z,3.03
2022-07-25T15:56:37.637Z,4.35
2022-07-25T15:59:23.414Z,2.80
2022-07-25T16:02:13.027Z,3.00
2022-07-25T16:04:58.527Z,2.15
2022-07-25T16:07:44.503Z,6.70
2022-07-25T16:10:31.829Z,2.55
2022-07-25T16:13:17.734Z,3.67
2022-07-25T16:16:02.924Z,4.78
2022-07-25T16:18:48.665Z,2.75
2022-07-25T16:21:34.332Z,2.65
2022-07-25T16:24:19.862Z,6.00
2022-07-25T16:27:06.015Z,3.42
2022-07-25T16:29:51.258Z,4.72
2022-07-25T16:32:36.695Z,4.90
2022-07-25T16:35:22.693Z,3.53
2022-07-25T16:38:08.065Z,4.93
2022-07-25T16:40:53.338Z,3.80
2022-07-25T16:43:38.753Z,2.25
2022-07-25T16:46:28.357Z,1.20
2022-07-25T16:49:15.594Z,3.20
2022-07-25T16:52:00.925Z,2.10
2022-07-25T16:54:46.295Z,3.03
2022-07-25T16:57:32.063Z,6.03
2022-07-25T17:00:17.876Z,4.13
2022-07-25T17:03:03.183Z,2.00
2022-07-25T17:05:51.590Z,1.67
2022-07-25T17:08:38.137Z,8.73
2022-07-25T17:11:23.754Z,2.33
2022-07-25T17:14:09.489Z,2.47
2022-07-25T17:16:55.154Z,2.72
2022-07-25T17:19:41.036Z,2.83
2022-07-25T17:22:26.873Z,5.38
2022-07-25T17:25:12.494Z,5.10
2022-07-25T17:27:58.618Z,2.45
2022-07-25T17:30:44.250Z,1.77
2022-07-25T17:33:29.572Z,3.30
2022-07-25T17:36:15.054Z,2.35
2022-07-25T17:39:00.787Z,2.85
2022-07-25T17:41:46.583Z,2.65
2022-07-25T17:44:31.877Z,2.95
2022-07-25T17:47:18.203Z,2.60
2022-07-25T17:50:04.530Z,2.13
2022-07-25T17:52:50.860Z,2.78
2022-07-25T17:55:38.979Z,2.85
2022-07-25T17:58:25.215Z,3.17
2022-07-25T18:01:10.815Z,2.53
2022-07-25T18:03:57.090Z,2.88
2022-07-25T18:06:42.594Z,3.22
2022-07-25T18:09:28.196Z,4.50
2022-07-25T18:12:13.630Z,2.83
2022-07-25T18:14:59.054Z,4.10
2022-07-25T18:17:46.419Z,2.67
2022-07-25T18:20:32.035Z,2.35
2022-07-25T18:23:17.551Z,3.60
2022-07-25T18:26:03.541Z,0.60
2022-07-25T18:28:49.350Z,2.38
2022-07-25T18:31:34.952Z,3.45
2022-07-25T18:34:20.671Z,1.42
2022-07-25T18:37:06.528Z,2.80
2022-07-25T18:39:51.785Z,2.50
2022-07-25T18:42:37.780Z,0.68
2022-07-25T18:45:23.628Z,2.65
2022-07-25T18:48:09.625Z,2.72
2022-07-25T18:50:55.378Z,2.13
2022-07-25T18:53:42.849Z,2.85
2022-07-25T18:56:32.216Z,2.30
2022-07-25T18:59:17.989Z,5.35
2022-07-25T19:02:03.854Z,3.30
2022-07-25T19:04:49.871Z,4.20
2022-07-25T19:07:35.669Z,1.98
2022-07-25T19:10:21.839Z,3.55
2022-07-25T19:13:07.852Z,2.90
2022-07-25T19:15:53.198Z,2.50
2022-07-25T19:18:39.581Z,1.98
2022-07-25T19:21:25.165Z,2.45
2022-07-25T19:24:11.324Z,2.45
2022-07-25T19:26:58.878Z,2.22
2022-07-25T19:29:44.105Z,3.53
2022-07-25T19:32:29.545Z,3.88
2022-07-25T19:35:15.005Z,2.38
2022-07-25T19:38:00.884Z,1.35
2022-07-25T19:40:46.860Z,2.75
2022-07-25T19:43:32.469Z,1.00
2022-07-25T19:46:17.982Z,3.42
2022-07-25T19:49:07.952Z,3.42
2022-07-25T19:51:53.522Z,7.35
2022-07-25T19:54:39.638Z,1.70
2022-07-25T19:57:25.515Z,3.83
2022-07-25T20:00:11.523Z,2.47
2022-07-25T20:02:57.156Z,1.30
2022-07-25T20:05:42.816Z,2.35
2022-07-25T20:08:28.859Z,1.25
2022-07-25T20:11:15.833Z,4.03
2022-07-25T20:14:01.818Z,0.82
2022-07-25T20:16:47.428Z,2.35
2022-07-25T20:19:32.970Z,6.70
2022-07-25T20:22:18.330Z,3.33
2022-07-25T20:25:05.949Z,1.05
2022-07-25T20:27:51.469Z,1.75
2022-07-25T20:30:36.988Z,1.92
2022-07-25T20:33:25.242Z,0.82
2022-07-25T20:36:11.024Z,2.22
2022-07-25T20:38:56.659Z,1.75
2022-07-25T20:41:42.810Z,3.17
2022-07-25T20:44:29.942Z,2.30
2022-07-25T20:47:17.037Z,1.73
2022-07-25T20:50:02.472Z,1.13
2022-07-25T20:52:47.927Z,2.83
2022-07-25T20:55:34.065Z,3.72
2022-07-25T20:58:21.227Z,4.10
2022-07-25T21:01:07.097Z,2.70
2022-07-25T21:03:52.670Z,2.03
2022-07-25T21:06:38.085Z,1.10
2022-07-25T21:09:23.590Z,1.15
2022-07-25T21:12:09.553Z,0.95
2022-07-25T21:14:54.974Z,2.00
2022-07-25T21:17:41.696Z,0.80
2022-07-25T21:20:27.238Z,0.98
2022-07-25T21:23:14.195Z,1.92
2022-07-25T21:26:00.370Z,1.83
2022-07-25T21:28:46.263Z,2.85
2022-07-25T21:31:32.034Z,2.00
2022-07-25T21:34:17.763Z,1.58
2022-07-25T21:37:05.324Z,1.45
2022-07-25T21:39:51.273Z,2.95
2022-07-25T21:42:37.361Z,0.90
2022-07-25T21:45:23.516Z,0.73
2022-07-25T21:48:09.346Z,2.72
2022-07-25T21:50:55.552Z,1.85
2022-07-25T21:53:42.493Z,2.78
2022-07-25T21:56:27.863Z,2.28
2022-07-25T21:59:13.414Z,2.88
2022-07-25T22:01:59.118Z,1.80
2022-07-25T22:04:44.831Z,0.98
2022-07-25T22:07:30.552Z,0.90
2022-07-25T22:10:20.990Z,1.92
2022-07-25T22:13:09.984Z,3.75
2022-07-25T22:15:55.820Z,2.10
2022-07-25T22:18:41.854Z,2.20
2022-07-25T22:21:28.765Z,3.10
2022-07-25T22:24:14.064Z,1.77
2022-07-25T22:27:00.312Z,4.10
2022-07-25T22:29:46.068Z,3.75
2022-07-25T22:32:32.372Z,0.75
2022-07-25T22:35:18.424Z,2.78
2022-07-25T22:38:04.643Z,1.23
2022-07-25T22:40:50.295Z,2.25
2022-07-25T22:43:58.087Z,2.47
2022-07-25T22:46:41.823Z,2.10
2022-07-25T22:49:27.291Z,2.50
2022-07-25T22:53:24.941Z,1.65
2022-07-25T22:56:10.612Z,2.75
2022-07-25T22:58:55.996Z,2.55
2022-07-25T23:01:41.770Z,3.58
2022-07-25T23:04:27.062Z,2.75
2022-07-25T23:07:12.540Z,3.15
2022-07-25T23:09:58.103Z,3.33
2022-07-25T23:12:43.774Z,4.43
2022-07-25T23:15:50.203Z,3.60
2022-07-25T23:18:35.324Z,3.72
2022-07-25T23:21:21.182Z,4.28
2022-07-25T23:24:06.672Z,3.47
2022-07-25T23:26:52.199Z,2.13
2022-07-25T23:29:37.721Z,2.30
2022-07-25T23:32:23.609Z,4.05
2022-07-25T23:35:09.408Z,3.78
2022-07-25T23:37:54.966Z,4.72
2022-07-25T23:40:40.994Z,4.95
2022-07-25T23:43:45.690Z,4.10
2022-07-25T23:46:31.981Z,3.10
2022-07-25T23:49:18.187Z,3.65
2022-07-25T23:52:04.074Z,4.25
2022-07-25T23:54:49.771Z,4.72
2022-07-25T23:57:35.677Z,3.30
